sensor_id;sensor_type;location;lat;lon;timestamp;temperature;humidity
6758;DHT22;3416;53.074;8.822;2023-04-19T00:01:31;9.20;95.20
6758;DHT22;3416;53.074;8.822;2023-04-19T00:03:58;9.10;95.40
6758;DHT22;3416;53.074;8.822;2023-04-19T00:06:25;9.10;95.40
6758;DHT22;3416;53.074;8.822;2023-04-19T00:08:55;9.10;95.30
6758;DHT22;3416;53.074;8.822;2023-04-19T00:11:22;9.10;95.30
6758;DHT22;3416;53.074;8.822;2023-04-19T00:13:49;9.10;95.50
6758;DHT22;3416;53.074;8.822;2023-04-19T00:16:17;9.00;95.50
6758;DHT22;3416;53.074;8.822;2023-04-19T00:18:44;9.00;95.90
6758;DHT22;3416;53.074;8.822;2023-04-19T00:21:11;9.00;96.00
6758;DHT22;3416;53.074;8.822;2023-04-19T00:23:38;9.10;96.20
6758;DHT22;3416;53.074;8.822;2023-04-19T00:26:05;9.00;96.40
6758;DHT22;3416;53.074;8.822;2023-04-19T00:28:32;8.90;96.70
6758;DHT22;3416;53.074;8.822;2023-04-19T00:30:59;8.90;96.90
6758;DHT22;3416;53.074;8.822;2023-04-19T00:33:28;8.80;97.10
6758;DHT22;3416;53.074;8.822;2023-04-19T00:35:54;8.80;97.10
6758;DHT22;3416;53.074;8.822;2023-04-19T00:38:21;8.70;97.40
6758;DHT22;3416;53.074;8.822;2023-04-19T00:40:49;8.70;97.40
6758;DHT22;3416;53.074;8.822;2023-04-19T00:43:17;8.70;97.80
6758;DHT22;3416;53.074;8.822;2023-04-19T00:45:44;8.60;97.50
6758;DHT22;3416;53.074;8.822;2023-04-19T00:48:12;8.60;97.80
6758;DHT22;3416;53.074;8.822;2023-04-19T00:50:41;8.50;97.80
6758;DHT22;3416;53.074;8.822;2023-04-19T00:53:09;8.50;97.90
6758;DHT22;3416;53.074;8.822;2023-04-19T00:55:38;8.50;98.00
6758;DHT22;3416;53.074;8.822;2023-04-19T00:58:06;8.50;98.10
6758;DHT22;3416;53.074;8.822;2023-04-19T01:00:34;8.40;98.50
6758;DHT22;3416;53.074;8.822;2023-04-19T01:03:01;8.40;98.50
6758;DHT22;3416;53.074;8.822;2023-04-19T01:05:28;8.40;98.50
6758;DHT22;3416;53.074;8.822;2023-04-19T01:07:56;8.30;98.60
6758;DHT22;3416;53.074;8.822;2023-04-19T01:10:23;8.40;98.80
6758;DHT22;3416;53.074;8.822;2023-04-19T01:12:51;8.30;99.00
6758;DHT22;3416;53.074;8.822;2023-04-19T01:15:18;8.30;99.20
6758;DHT22;3416;53.074;8.822;2023-04-19T01:17:45;8.30;99.30
6758;DHT22;3416;53.074;8.822;2023-04-19T01:20:12;8.30;99.60
6758;DHT22;3416;53.074;8.822;2023-04-19T01:22:40;8.30;99.80
6758;DHT22;3416;53.074;8.822;2023-04-19T01:25:07;8.40;99.90
6758;DHT22;3416;53.074;8.822;2023-04-19T01:27:34;8.30;99.90
6758;DHT22;3416;53.074;8.822;2023-04-19T01:30:01;8.20;99.90
6758;DHT22;3416;53.074;8.822;2023-04-19T01:32:28;8.30;99.90
6758;DHT22;3416;53.074;8.822;2023-04-19T01:34:55;8.30;99.90
6758;DHT22;3416;53.074;8.822;2023-04-19T01:37:22;8.20;99.90
6758;DHT22;3416;53.074;8.822;2023-04-19T01:39:51;8.20;99.90
6758;DHT22;3416;53.074;8.822;2023-04-19T01:42:18;8.10;99.90
6758;DHT22;3416;53.074;8.822;2023-04-19T01:44:45;8.10;99.90
6758;DHT22;3416;53.074;8.822;2023-04-19T01:47:12;8.00;99.90
6758;DHT22;3416;53.074;8.822;2023-04-19T01:49:38;8.00;99.90
6758;DHT22;3416;53.074;8.822;2023-04-19T01:52:05;7.90;99.90
6758;DHT22;3416;53.074;8.822;2023-04-19T01:54:32;7.90;99.90
6758;DHT22;3416;53.074;8.822;2023-04-19T01:57:01;7.80;99.90
6758;DHT22;3416;53.074;8.822;2023-04-19T01:59:28;7.70;99.90
6758;DHT22;3416;53.074;8.822;2023-04-19T02:01:54;7.70;99.90
6758;DHT22;3416;53.074;8.822;2023-04-19T02:04:21;7.70;99.90
6758;DHT22;3416;53.074;8.822;2023-04-19T02:06:48;7.60;99.90
6758;DHT22;3416;53.074;8.822;2023-04-19T02:09:15;7.60;99.90
6758;DHT22;3416;53.074;8.822;2023-04-19T02:11:43;7.60;99.90
6758;DHT22;3416;53.074;8.822;2023-04-19T02:14:11;7.50;99.90
6758;DHT22;3416;53.074;8.822;2023-04-19T02:16:38;7.50;99.90
6758;DHT22;3416;53.074;8.822;2023-04-19T02:19:11;7.50;99.90
6758;DHT22;3416;53.074;8.822;2023-04-19T02:21:38;7.50;99.90
6758;DHT22;3416;53.074;8.822;2023-04-19T02:24:12;7.40;99.90
6758;DHT22;3416;53.074;8.822;2023-04-19T02:26:39;7.30;99.90
6758;DHT22;3416;53.074;8.822;2023-04-19T02:29:06;7.30;99.90
6758;DHT22;3416;53.074;8.822;2023-04-19T02:31:35;7.30;99.90
6758;DHT22;3416;53.074;8.822;2023-04-19T02:34:02;7.30;99.90
6758;DHT22;3416;53.074;8.822;2023-04-19T02:36:29;7.30;99.90
6758;DHT22;3416;53.074;8.822;2023-04-19T02:38:56;7.30;99.90
6758;DHT22;3416;53.074;8.822;2023-04-19T02:41:23;7.30;99.90
6758;DHT22;3416;53.074;8.822;2023-04-19T02:43:50;7.30;99.90
6758;DHT22;3416;53.074;8.822;2023-04-19T02:46:17;7.20;99.90
6758;DHT22;3416;53.074;8.822;2023-04-19T02:48:46;7.20;99.90
6758;DHT22;3416;53.074;8.822;2023-04-19T02:51:14;7.20;99.90
6758;DHT22;3416;53.074;8.822;2023-04-19T02:53:43;7.10;99.90
6758;DHT22;3416;53.074;8.822;2023-04-19T02:56:09;7.00;99.90
6758;DHT22;3416;53.074;8.822;2023-04-19T02:58:36;7.00;99.90
6758;DHT22;3416;53.074;8.822;2023-04-19T03:01:03;7.00;99.90
6758;DHT22;3416;53.074;8.822;2023-04-19T03:03:31;7.00;99.90
6758;DHT22;3416;53.074;8.822;2023-04-19T03:05:59;6.90;99.90
6758;DHT22;3416;53.074;8.822;2023-04-19T03:08:26;6.80;99.90
6758;DHT22;3416;53.074;8.822;2023-04-19T03:10:54;6.80;99.90
6758;DHT22;3416;53.074;8.822;2023-04-19T03:13:20;6.70;99.90
6758;DHT22;3416;53.074;8.822;2023-04-19T03:15:47;6.70;99.90
6758;DHT22;3416;53.074;8.822;2023-04-19T03:18:14;6.70;99.90
6758;DHT22;3416;53.074;8.822;2023-04-19T03:20:41;6.70;99.90
6758;DHT22;3416;53.074;8.822;2023-04-19T03:23:10;6.60;99.90
6758;DHT22;3416;53.074;8.822;2023-04-19T03:25:37;6.60;99.90
6758;DHT22;3416;53.074;8.822;2023-04-19T03:28:07;6.50;99.90
6758;DHT22;3416;53.074;8.822;2023-04-19T03:30:36;6.50;99.90
6758;DHT22;3416;53.074;8.822;2023-04-19T03:33:08;6.60;99.90
6758;DHT22;3416;53.074;8.822;2023-04-19T03:35:37;6.50;99.90
6758;DHT22;3416;53.074;8.822;2023-04-19T03:38:04;6.50;99.90
6758;DHT22;3416;53.074;8.822;2023-04-19T03:40:35;6.50;99.90
6758;DHT22;3416;53.074;8.822;2023-04-19T03:43:02;6.40;99.90
6758;DHT22;3416;53.074;8.822;2023-04-19T03:45:29;6.40;99.90
6758;DHT22;3416;53.074;8.822;2023-04-19T03:47:56;6.30;99.90
6758;DHT22;3416;53.074;8.822;2023-04-19T03:50:23;6.30;99.90
6758;DHT22;3416;53.074;8.822;2023-04-19T03:52:50;6.30;99.90
6758;DHT22;3416;53.074;8.822;2023-04-19T03:55:17;6.30;99.90
6758;DHT22;3416;53.074;8.822;2023-04-19T03:57:45;6.30;99.90
6758;DHT22;3416;53.074;8.822;2023-04-19T04:00:13;6.30;99.90
6758;DHT22;3416;53.074;8.822;2023-04-19T04:02:41;6.20;99.90
6758;DHT22;3416;53.074;8.822;2023-04-19T04:05:08;6.20;99.90
6758;DHT22;3416;53.074;8.822;2023-04-19T04:07:35;6.20;99.90
6758;DHT22;3416;53.074;8.822;2023-04-19T04:10:03;6.20;99.90
6758;DHT22;3416;53.074;8.822;2023-04-19T04:12:30;6.20;99.90
6758;DHT22;3416;53.074;8.822;2023-04-19T04:14:59;6.10;99.90
6758;DHT22;3416;53.074;8.822;2023-04-19T04:17:29;6.10;99.90
6758;DHT22;3416;53.074;8.822;2023-04-19T04:19:55;6.10;99.90
6758;DHT22;3416;53.074;8.822;2023-04-19T04:22:22;6.10;99.90
6758;DHT22;3416;53.074;8.822;2023-04-19T04:24:49;6.00;99.90
6758;DHT22;3416;53.074;8.822;2023-04-19T04:27:18;6.10;99.90
6758;DHT22;3416;53.074;8.822;2023-04-19T04:29:46;6.00;99.90
6758;DHT22;3416;53.074;8.822;2023-04-19T04:32:15;6.10;99.90
6758;DHT22;3416;53.074;8.822;2023-04-19T04:34:42;6.10;99.90
6758;DHT22;3416;53.074;8.822;2023-04-19T04:37:10;6.10;99.90
6758;DHT22;3416;53.074;8.822;2023-04-19T04:39:38;6.10;99.90
6758;DHT22;3416;53.074;8.822;2023-04-19T04:42:06;6.10;99.90
6758;DHT22;3416;53.074;8.822;2023-04-19T04:44:33;6.10;99.90
6758;DHT22;3416;53.074;8.822;2023-04-19T04:47:00;6.20;99.90
6758;DHT22;3416;53.074;8.822;2023-04-19T04:49:29;6.20;99.90
6758;DHT22;3416;53.074;8.822;2023-04-19T04:51:56;6.20;99.90
6758;DHT22;3416;53.074;8.822;2023-04-19T04:54:23;6.30;99.90
6758;DHT22;3416;53.074;8.822;2023-04-19T04:56:52;6.30;99.90
6758;DHT22;3416;53.074;8.822;2023-04-19T04:59:18;6.30;99.90
6758;DHT22;3416;53.074;8.822;2023-04-19T05:01:45;6.40;99.90
6758;DHT22;3416;53.074;8.822;2023-04-19T05:04:12;6.40;99.90
6758;DHT22;3416;53.074;8.822;2023-04-19T05:06:41;6.40;99.90
6758;DHT22;3416;53.074;8.822;2023-04-19T05:09:09;6.50;99.90
6758;DHT22;3416;53.074;8.822;2023-04-19T05:11:36;6.60;99.90
6758;DHT22;3416;53.074;8.822;2023-04-19T05:14:03;6.60;99.90
6758;DHT22;3416;53.074;8.822;2023-04-19T05:16:30;6.70;99.90
6758;DHT22;3416;53.074;8.822;2023-04-19T05:18:57;6.70;99.90
6758;DHT22;3416;53.074;8.822;2023-04-19T05:21:23;6.70;99.90
6758;DHT22;3416;53.074;8.822;2023-04-19T05:23:52;6.80;99.90
6758;DHT22;3416;53.074;8.822;2023-04-19T05:26:19;6.90;99.90
6758;DHT22;3416;53.074;8.822;2023-04-19T05:28:46;7.00;99.90
6758;DHT22;3416;53.074;8.822;2023-04-19T05:31:13;7.20;99.90
6758;DHT22;3416;53.074;8.822;2023-04-19T05:33:42;7.40;99.90
6758;DHT22;3416;53.074;8.822;2023-04-19T05:36:09;7.60;99.90
6758;DHT22;3416;53.074;8.822;2023-04-19T05:38:37;7.70;99.90
6758;DHT22;3416;53.074;8.822;2023-04-19T05:41:05;8.00;99.90
6758;DHT22;3416;53.074;8.822;2023-04-19T05:43:32;8.30;99.90
6758;DHT22;3416;53.074;8.822;2023-04-19T05:45:59;8.40;99.90
6758;DHT22;3416;53.074;8.822;2023-04-19T05:48:25;8.50;99.90
6758;DHT22;3416;53.074;8.822;2023-04-19T05:50:52;8.60;99.90
6758;DHT22;3416;53.074;8.822;2023-04-19T05:53:23;8.70;99.90
6758;DHT22;3416;53.074;8.822;2023-04-19T05:55:52;8.90;99.90
6758;DHT22;3416;53.074;8.822;2023-04-19T05:58:20;9.00;99.90
6758;DHT22;3416;53.074;8.822;2023-04-19T06:00:47;9.20;99.90
6758;DHT22;3416;53.074;8.822;2023-04-19T06:03:16;9.50;99.70
6758;DHT22;3416;53.074;8.822;2023-04-19T06:05:55;9.90;99.20
6758;DHT22;3416;53.074;8.822;2023-04-19T06:08:22;10.80;97.80
6758;DHT22;3416;53.074;8.822;2023-04-19T06:10:50;11.70;95.70
6758;DHT22;3416;53.074;8.822;2023-04-19T06:13:20;12.40;94.10
6758;DHT22;3416;53.074;8.822;2023-04-19T06:15:47;13.00;92.90
6758;DHT22;3416;53.074;8.822;2023-04-19T06:18:16;13.50;92.00
6758;DHT22;3416;53.074;8.822;2023-04-19T06:20:43;14.00;90.90
6758;DHT22;3416;53.074;8.822;2023-04-19T06:23:11;14.60;90.20
6758;DHT22;3416;53.074;8.822;2023-04-19T06:25:39;15.00;88.50
6758;DHT22;3416;53.074;8.822;2023-04-19T06:28:06;15.40;86.80
6758;DHT22;3416;53.074;8.822;2023-04-19T06:30:34;15.70;85.90
6758;DHT22;3416;53.074;8.822;2023-04-19T06:33:01;16.00;84.90
6758;DHT22;3416;53.074;8.822;2023-04-19T06:35:28;16.50;83.20
6758;DHT22;3416;53.074;8.822;2023-04-19T06:37:55;17.10;82.60
6758;DHT22;3416;53.074;8.822;2023-04-19T06:40:22;17.60;79.80
6758;DHT22;3416;53.074;8.822;2023-04-19T06:42:49;17.90;78.90
6758;DHT22;3416;53.074;8.822;2023-04-19T06:45:16;17.70;77.80
6758;DHT22;3416;53.074;8.822;2023-04-19T06:47:45;17.60;77.50
6758;DHT22;3416;53.074;8.822;2023-04-19T06:50:12;17.50;77.80
6758;DHT22;3416;53.074;8.822;2023-04-19T06:52:39;17.30;78.40
6758;DHT22;3416;53.074;8.822;2023-04-19T06:55:06;17.30;77.80
6758;DHT22;3416;53.074;8.822;2023-04-19T06:57:33;17.70;77.40
6758;DHT22;3416;53.074;8.822;2023-04-19T07:00:02;17.80;75.30
6758;DHT22;3416;53.074;8.822;2023-04-19T07:02:31;18.00;75.30
6758;DHT22;3416;53.074;8.822;2023-04-19T07:04:59;18.00;75.20
6758;DHT22;3416;53.074;8.822;2023-04-19T07:07:26;17.90;74.80
6758;DHT22;3416;53.074;8.822;2023-04-19T07:09:53;17.70;74.40
6758;DHT22;3416;53.074;8.822;2023-04-19T07:12:20;17.70;75.50
6758;DHT22;3416;53.074;8.822;2023-04-19T07:14:48;18.10;74.90
6758;DHT22;3416;53.074;8.822;2023-04-19T07:17:20;18.20;73.50
6758;DHT22;3416;53.074;8.822;2023-04-19T07:19:47;18.50;74.50
6758;DHT22;3416;53.074;8.822;2023-04-19T07:22:16;19.50;73.60
6758;DHT22;3416;53.074;8.822;2023-04-19T07:24:45;20.60;70.60
6758;DHT22;3416;53.074;8.822;2023-04-19T07:27:12;21.60;68.40
6758;DHT22;3416;53.074;8.822;2023-04-19T07:29:41;22.70;66.60
6758;DHT22;3416;53.074;8.822;2023-04-19T07:32:07;23.20;63.70
6758;DHT22;3416;53.074;8.822;2023-04-19T07:34:36;23.60;61.30
6758;DHT22;3416;53.074;8.822;2023-04-19T07:37:03;24.30;60.10
6758;DHT22;3416;53.074;8.822;2023-04-19T07:39:32;24.00;59.00
6758;DHT22;3416;53.074;8.822;2023-04-19T07:42:00;24.60;58.40
6758;DHT22;3416;53.074;8.822;2023-04-19T07:44:27;25.00;57.20
6758;DHT22;3416;53.074;8.822;2023-04-19T07:46:54;25.50;56.20
6758;DHT22;3416;53.074;8.822;2023-04-19T07:49:21;25.50;55.50
6758;DHT22;3416;53.074;8.822;2023-04-19T07:51:48;25.60;55.20
6758;DHT22;3416;53.074;8.822;2023-04-19T07:54:16;25.90;54.00
6758;DHT22;3416;53.074;8.822;2023-04-19T07:56:46;26.10;53.70
6758;DHT22;3416;53.074;8.822;2023-04-19T07:59:13;26.00;53.10
6758;DHT22;3416;53.074;8.822;2023-04-19T08:01:40;26.00;53.20
6758;DHT22;3416;53.074;8.822;2023-04-19T08:04:07;26.30;53.00
6758;DHT22;3416;53.074;8.822;2023-04-19T08:06:37;26.80;52.10
6758;DHT22;3416;53.074;8.822;2023-04-19T08:09:04;27.30;51.30
6758;DHT22;3416;53.074;8.822;2023-04-19T08:11:33;27.50;49.90
6758;DHT22;3416;53.074;8.822;2023-04-19T08:14:01;27.40;50.20
6758;DHT22;3416;53.074;8.822;2023-04-19T08:16:28;27.80;49.30
6758;DHT22;3416;53.074;8.822;2023-04-19T08:18:56;27.60;49.20
6758;DHT22;3416;53.074;8.822;2023-04-19T08:21:23;27.60;49.30
6758;DHT22;3416;53.074;8.822;2023-04-19T08:23:51;27.70;48.90
6758;DHT22;3416;53.074;8.822;2023-04-19T08:26:18;27.80;48.30
6758;DHT22;3416;53.074;8.822;2023-04-19T08:28:45;28.10;47.10
6758;DHT22;3416;53.074;8.822;2023-04-19T08:31:14;27.30;44.80
6758;DHT22;3416;53.074;8.822;2023-04-19T08:33:41;26.90;44.80
6758;DHT22;3416;53.074;8.822;2023-04-19T08:36:08;26.50;44.70
6758;DHT22;3416;53.074;8.822;2023-04-19T08:38:35;25.60;43.50
6758;DHT22;3416;53.074;8.822;2023-04-19T08:41:03;24.70;44.60
6758;DHT22;3416;53.074;8.822;2023-04-19T08:43:34;24.90;45.10
6758;DHT22;3416;53.074;8.822;2023-04-19T08:46:03;24.80;44.50
6758;DHT22;3416;53.074;8.822;2023-04-19T08:48:33;24.70;44.20
6758;DHT22;3416;53.074;8.822;2023-04-19T08:51:01;24.50;44.70
6758;DHT22;3416;53.074;8.822;2023-04-19T08:53:33;25.10;45.00
6758;DHT22;3416;53.074;8.822;2023-04-19T08:56:01;25.50;43.70
6758;DHT22;3416;53.074;8.822;2023-04-19T08:58:29;25.60;44.10
6758;DHT22;3416;53.074;8.822;2023-04-19T09:00:57;25.40;43.70
6758;DHT22;3416;53.074;8.822;2023-04-19T09:03:25;25.50;44.40
6758;DHT22;3416;53.074;8.822;2023-04-19T09:05:53;25.10;43.00
6758;DHT22;3416;53.074;8.822;2023-04-19T09:08:22;24.90;43.30
6758;DHT22;3416;53.074;8.822;2023-04-19T09:10:55;24.20;42.60
6758;DHT22;3416;53.074;8.822;2023-04-19T09:13:23;23.50;44.10
6758;DHT22;3416;53.074;8.822;2023-04-19T09:15:50;24.00;45.50
6758;DHT22;3416;53.074;8.822;2023-04-19T09:18:18;24.40;44.10
6758;DHT22;3416;53.074;8.822;2023-04-19T09:20:46;24.50;44.50
6758;DHT22;3416;53.074;8.822;2023-04-19T09:23:16;24.60;43.40
6758;DHT22;3416;53.074;8.822;2023-04-19T09:25:51;24.40;43.70
6758;DHT22;3416;53.074;8.822;2023-04-19T09:28:19;24.40;43.40
6758;DHT22;3416;53.074;8.822;2023-04-19T09:30:46;23.50;42.80
6758;DHT22;3416;53.074;8.822;2023-04-19T09:33:17;23.30;44.80
6758;DHT22;3416;53.074;8.822;2023-04-19T09:35:58;22.80;44.60
6758;DHT22;3416;53.074;8.822;2023-04-19T09:38:29;22.40;45.50
6758;DHT22;3416;53.074;8.822;2023-04-19T09:41:06;23.00;47.10
6758;DHT22;3416;53.074;8.822;2023-04-19T09:43:33;23.70;45.10
6758;DHT22;3416;53.074;8.822;2023-04-19T09:46:00;23.80;44.70
6758;DHT22;3416;53.074;8.822;2023-04-19T09:48:27;23.70;45.00
6758;DHT22;3416;53.074;8.822;2023-04-19T09:50:55;22.60;45.20
6758;DHT22;3416;53.074;8.822;2023-04-19T09:53:23;22.60;46.00
6758;DHT22;3416;53.074;8.822;2023-04-19T09:55:52;22.70;47.60
6758;DHT22;3416;53.074;8.822;2023-04-19T09:58:19;22.40;45.90
6758;DHT22;3416;53.074;8.822;2023-04-19T10:00:47;22.40;46.30
6758;DHT22;3416;53.074;8.822;2023-04-19T10:03:17;22.90;46.30
6758;DHT22;3416;53.074;8.822;2023-04-19T10:05:44;23.00;46.50
6758;DHT22;3416;53.074;8.822;2023-04-19T10:08:12;23.80;45.80
6758;DHT22;3416;53.074;8.822;2023-04-19T10:10:39;24.20;45.60
6758;DHT22;3416;53.074;8.822;2023-04-19T10:13:11;23.80;43.80
6758;DHT22;3416;53.074;8.822;2023-04-19T10:15:38;23.40;43.80
6758;DHT22;3416;53.074;8.822;2023-04-19T10:18:15;22.90;43.20
6758;DHT22;3416;53.074;8.822;2023-04-19T10:20:48;22.70;41.90
6758;DHT22;3416;53.074;8.822;2023-04-19T10:23:24;22.10;41.50
6758;DHT22;3416;53.074;8.822;2023-04-19T10:25:59;21.60;41.90
6758;DHT22;3416;53.074;8.822;2023-04-19T10:28:28;21.60;44.80
6758;DHT22;3416;53.074;8.822;2023-04-19T10:31:04;21.50;43.30
6758;DHT22;3416;53.074;8.822;2023-04-19T10:33:34;21.00;43.60
6758;DHT22;3416;53.074;8.822;2023-04-19T10:36:08;21.50;45.30
6758;DHT22;3416;53.074;8.822;2023-04-19T10:38:37;21.70;44.00
6758;DHT22;3416;53.074;8.822;2023-04-19T10:41:21;21.20;43.20
6758;DHT22;3416;53.074;8.822;2023-04-19T10:44:17;20.30;43.40
6758;DHT22;3416;53.074;8.822;2023-04-19T10:46:44;19.90;44.70
6758;DHT22;3416;53.074;8.822;2023-04-19T10:49:14;19.30;46.50
6758;DHT22;3416;53.074;8.822;2023-04-19T10:51:48;19.20;45.50
6758;DHT22;3416;53.074;8.822;2023-04-19T10:54:28;18.70;45.30
6758;DHT22;3416;53.074;8.822;2023-04-19T10:56:58;18.40;44.60
6758;DHT22;3416;53.074;8.822;2023-04-19T10:59:31;18.00;46.90
6758;DHT22;3416;53.074;8.822;2023-04-19T11:01:59;17.80;47.30
6758;DHT22;3416;53.074;8.822;2023-04-19T11:04:57;17.90;49.10
6758;DHT22;3416;53.074;8.822;2023-04-19T11:07:25;17.90;47.50
6758;DHT22;3416;53.074;8.822;2023-04-19T11:09:52;17.70;46.50
6758;DHT22;3416;53.074;8.822;2023-04-19T11:12:20;17.60;46.40
6758;DHT22;3416;53.074;8.822;2023-04-19T11:14:51;17.60;46.90
6758;DHT22;3416;53.074;8.822;2023-04-19T11:17:20;17.50;47.10
6758;DHT22;3416;53.074;8.822;2023-04-19T11:19:53;17.40;46.90
6758;DHT22;3416;53.074;8.822;2023-04-19T11:22:25;17.40;47.10
6758;DHT22;3416;53.074;8.822;2023-04-19T11:24:55;17.40;45.60
6758;DHT22;3416;53.074;8.822;2023-04-19T11:27:22;17.10;46.30
6758;DHT22;3416;53.074;8.822;2023-04-19T11:29:51;16.90;46.50
6758;DHT22;3416;53.074;8.822;2023-04-19T11:32:20;16.70;46.40
6758;DHT22;3416;53.074;8.822;2023-04-19T11:34:48;16.60;46.00
6758;DHT22;3416;53.074;8.822;2023-04-19T11:37:16;16.40;45.60
6758;DHT22;3416;53.074;8.822;2023-04-19T11:39:47;16.30;45.30
6758;DHT22;3416;53.074;8.822;2023-04-19T11:42:17;16.20;46.30
6758;DHT22;3416;53.074;8.822;2023-04-19T11:44:48;16.20;46.10
6758;DHT22;3416;53.074;8.822;2023-04-19T11:47:17;16.30;47.10
6758;DHT22;3416;53.074;8.822;2023-04-19T11:49:45;16.20;47.60
6758;DHT22;3416;53.074;8.822;2023-04-19T11:52:19;16.20;48.20
6758;DHT22;3416;53.074;8.822;2023-04-19T11:54:47;16.30;48.50
6758;DHT22;3416;53.074;8.822;2023-04-19T11:57:14;16.30;48.40
6758;DHT22;3416;53.074;8.822;2023-04-19T12:00:01;16.50;49.00
6758;DHT22;3416;53.074;8.822;2023-04-19T12:02:36;16.40;49.20
6758;DHT22;3416;53.074;8.822;2023-04-19T12:05:08;16.50;49.90
6758;DHT22;3416;53.074;8.822;2023-04-19T12:07:35;16.40;49.50
6758;DHT22;3416;53.074;8.822;2023-04-19T12:10:08;16.40;49.60
6758;DHT22;3416;53.074;8.822;2023-04-19T12:12:36;16.50;48.40
6758;DHT22;3416;53.074;8.822;2023-04-19T12:15:04;16.50;47.80
6758;DHT22;3416;53.074;8.822;2023-04-19T12:17:31;16.40;48.00
6758;DHT22;3416;53.074;8.822;2023-04-19T12:19:59;16.20;47.80
6758;DHT22;3416;53.074;8.822;2023-04-19T12:22:26;16.10;48.20
6758;DHT22;3416;53.074;8.822;2023-04-19T12:24:53;16.00;48.50
6758;DHT22;3416;53.074;8.822;2023-04-19T12:27:20;16.10;49.50
6758;DHT22;3416;53.074;8.822;2023-04-19T12:29:47;16.20;48.00
6758;DHT22;3416;53.074;8.822;2023-04-19T12:32:15;16.20;48.00
6758;DHT22;3416;53.074;8.822;2023-04-19T12:34:42;16.20;46.40
6758;DHT22;3416;53.074;8.822;2023-04-19T12:37:10;16.20;45.50
6758;DHT22;3416;53.074;8.822;2023-04-19T12:39:37;16.20;45.70
6758;DHT22;3416;53.074;8.822;2023-04-19T12:42:04;16.20;44.20
6758;DHT22;3416;53.074;8.822;2023-04-19T12:44:31;16.30;43.40
6758;DHT22;3416;53.074;8.822;2023-04-19T12:46:58;16.30;41.80
6758;DHT22;3416;53.074;8.822;2023-04-19T12:49:25;16.20;42.10
6758;DHT22;3416;53.074;8.822;2023-04-19T12:51:53;16.20;42.90
6758;DHT22;3416;53.074;8.822;2023-04-19T12:54:22;16.20;41.50
6758;DHT22;3416;53.074;8.822;2023-04-19T12:56:49;16.00;40.80
6758;DHT22;3416;53.074;8.822;2023-04-19T12:59:15;15.90;41.10
6758;DHT22;3416;53.074;8.822;2023-04-19T13:01:42;15.80;41.60
6758;DHT22;3416;53.074;8.822;2023-04-19T13:04:09;15.70;41.20
6758;DHT22;3416;53.074;8.822;2023-04-19T13:07:06;15.70;41.20
6758;DHT22;3416;53.074;8.822;2023-04-19T13:09:34;15.70;41.20
6758;DHT22;3416;53.074;8.822;2023-04-19T13:12:01;15.70;41.40
6758;DHT22;3416;53.074;8.822;2023-04-19T13:14:28;15.70;41.60
6758;DHT22;3416;53.074;8.822;2023-04-19T13:16:55;15.60;41.40
6758;DHT22;3416;53.074;8.822;2023-04-19T13:19:22;15.50;41.60
6758;DHT22;3416;53.074;8.822;2023-04-19T13:21:49;15.40;41.50
6758;DHT22;3416;53.074;8.822;2023-04-19T13:24:16;15.50;42.30
6758;DHT22;3416;53.074;8.822;2023-04-19T13:26:44;15.70;43.40
6758;DHT22;3416;53.074;8.822;2023-04-19T13:29:11;15.80;42.40
6758;DHT22;3416;53.074;8.822;2023-04-19T13:31:39;15.70;41.40
6758;DHT22;3416;53.074;8.822;2023-04-19T13:34:08;15.60;40.90
6758;DHT22;3416;53.074;8.822;2023-04-19T13:36:35;15.40;41.00
6758;DHT22;3416;53.074;8.822;2023-04-19T13:39:02;15.30;41.30
6758;DHT22;3416;53.074;8.822;2023-04-19T13:41:29;15.30;42.00
6758;DHT22;3416;53.074;8.822;2023-04-19T13:43:57;15.20;42.40
6758;DHT22;3416;53.074;8.822;2023-04-19T13:46:24;15.40;43.20
6758;DHT22;3416;53.074;8.822;2023-04-19T13:48:51;15.40;42.50
6758;DHT22;3416;53.074;8.822;2023-04-19T13:51:18;15.40;42.30
6758;DHT22;3416;53.074;8.822;2023-04-19T13:53:45;15.30;41.90
6758;DHT22;3416;53.074;8.822;2023-04-19T13:56:12;15.30;42.00
6758;DHT22;3416;53.074;8.822;2023-04-19T13:58:39;15.30;41.70
6758;DHT22;3416;53.074;8.822;2023-04-19T14:01:08;15.40;42.10
6758;DHT22;3416;53.074;8.822;2023-04-19T14:03:35;15.40;42.10
6758;DHT22;3416;53.074;8.822;2023-04-19T14:06:02;15.40;42.70
6758;DHT22;3416;53.074;8.822;2023-04-19T14:08:29;15.40;42.00
6758;DHT22;3416;53.074;8.822;2023-04-19T14:10:56;15.30;42.10
6758;DHT22;3416;53.074;8.822;2023-04-19T14:13:24;15.30;42.60
6758;DHT22;3416;53.074;8.822;2023-04-19T14:15:52;15.20;41.90
6758;DHT22;3416;53.074;8.822;2023-04-19T14:18:20;15.30;42.90
6758;DHT22;3416;53.074;8.822;2023-04-19T14:20:47;15.30;42.10
6758;DHT22;3416;53.074;8.822;2023-04-19T14:23:14;15.20;42.70
6758;DHT22;3416;53.074;8.822;2023-04-19T14:25:41;15.30;43.00
6758;DHT22;3416;53.074;8.822;2023-04-19T14:28:08;15.30;42.70
6758;DHT22;3416;53.074;8.822;2023-04-19T14:30:38;15.20;41.80
6758;DHT22;3416;53.074;8.822;2023-04-19T14:33:05;15.10;42.20
6758;DHT22;3416;53.074;8.822;2023-04-19T14:35:33;15.20;42.50
6758;DHT22;3416;53.074;8.822;2023-04-19T14:38:00;15.00;42.70
6758;DHT22;3416;53.074;8.822;2023-04-19T14:40:27;15.00;43.30
6758;DHT22;3416;53.074;8.822;2023-04-19T14:42:54;15.10;43.10
6758;DHT22;3416;53.074;8.822;2023-04-19T14:45:22;15.10;43.10
6758;DHT22;3416;53.074;8.822;2023-04-19T14:47:49;15.00;43.60
6758;DHT22;3416;53.074;8.822;2023-04-19T14:50:16;15.00;43.50
6758;DHT22;3416;53.074;8.822;2023-04-19T14:52:45;14.80;42.90
6758;DHT22;3416;53.074;8.822;2023-04-19T14:55:12;14.80;43.20
6758;DHT22;3416;53.074;8.822;2023-04-19T14:57:39;14.80;43.10
6758;DHT22;3416;53.074;8.822;2023-04-19T15:00:07;14.70;43.50
6758;DHT22;3416;53.074;8.822;2023-04-19T15:02:35;14.70;43.60
6758;DHT22;3416;53.074;8.822;2023-04-19T15:05:03;14.70;43.50
6758;DHT22;3416;53.074;8.822;2023-04-19T15:07:30;14.80;43.90
6758;DHT22;3416;53.074;8.822;2023-04-19T15:09:58;14.80;44.40
6758;DHT22;3416;53.074;8.822;2023-04-19T15:12:25;14.80;43.90
6758;DHT22;3416;53.074;8.822;2023-04-19T15:14:52;14.70;43.70
6758;DHT22;3416;53.074;8.822;2023-04-19T15:17:19;14.60;43.80
6758;DHT22;3416;53.074;8.822;2023-04-19T15:19:46;14.50;44.10
6758;DHT22;3416;53.074;8.822;2023-04-19T15:22:13;14.50;43.60
6758;DHT22;3416;53.074;8.822;2023-04-19T15:24:40;14.50;43.80
6758;DHT22;3416;53.074;8.822;2023-04-19T15:27:09;14.50;44.00
6758;DHT22;3416;53.074;8.822;2023-04-19T15:29:36;14.50;44.30
6758;DHT22;3416;53.074;8.822;2023-04-19T15:32:04;14.50;44.20
6758;DHT22;3416;53.074;8.822;2023-04-19T15:34:31;14.50;43.30
6758;DHT22;3416;53.074;8.822;2023-04-19T15:36:58;14.50;43.20
6758;DHT22;3416;53.074;8.822;2023-04-19T15:39:27;14.40;43.90
6758;DHT22;3416;53.074;8.822;2023-04-19T15:41:54;14.40;43.20
6758;DHT22;3416;53.074;8.822;2023-04-19T15:44:23;14.50;43.50
6758;DHT22;3416;53.074;8.822;2023-04-19T15:46:50;14.50;43.90
6758;DHT22;3416;53.074;8.822;2023-04-19T15:49:17;14.40;43.80
6758;DHT22;3416;53.074;8.822;2023-04-19T15:51:44;14.30;43.40
6758;DHT22;3416;53.074;8.822;2023-04-19T15:54:12;14.20;43.00
6758;DHT22;3416;53.074;8.822;2023-04-19T15:56:39;14.10;44.10
6758;DHT22;3416;53.074;8.822;2023-04-19T15:59:07;14.20;44.10
6758;DHT22;3416;53.074;8.822;2023-04-19T16:01:35;14.10;43.80
6758;DHT22;3416;53.074;8.822;2023-04-19T16:04:02;14.10;43.30
6758;DHT22;3416;53.074;8.822;2023-04-19T16:06:29;14.10;44.10
6758;DHT22;3416;53.074;8.822;2023-04-19T16:08:56;14.10;44.20
6758;DHT22;3416;53.074;8.822;2023-04-19T16:11:23;14.20;44.60
6758;DHT22;3416;53.074;8.822;2023-04-19T16:13:50;14.20;45.40